Richmond, UT (84333)

3:03 AM MST on January 18, 2017 (GMT -0700)
Richmond 1436A | | Change Station

Elev 4551 ft 41.94 °N, 111.81 °W | Updated 12 seconds ago

Clear
Clear
1.5 °F
Feels Like 1 °F
N
0.0
Wind Variable Wind from NW
Gusts 0.0 mph

Today
High -- | Low -- °F
--% Chance of Precip.
Yesterday
High -- | Low -- °F
Precip. -- in
Pressure 30.46 in
Visibility 5.0 miles
Clouds Clear
Windchill 1 °F
Dew Point -2 °F
Humidity 83%
Rainfall 0.00 in
Snow Depth Not available.
7:50 AM 5:25 PM
Waning Gibbous, 64% visible
METAR KLGU 180951Z AUTO 32005KT 5SM BR CLR M19/M20 A3022 RMK AO2 SLP315 T11891200
Pressure 30.46 in
Visibility 5.0 miles
Clouds Clear
Windchill 1 °F
Dew Point -2 °F
Humidity 83%
Rainfall 0.00 in
Snow Depth Not available.
7:50 AM 5:25 PM
Waning Gibbous, 64% visible
METAR KLGU 180951Z AUTO 32005KT 5SM BR CLR M19/M20 A3022 RMK AO2 SLP315 T11891200

Get Your Daily Forecast Email!

Thanks for signing up!

Be on the lookout for a verification email in your inbox.

You'll start receiving the daily forecast at 8 AM.

×

10-Day Weather Forecast

Almanac

Astronomy

Jan. 18, 2017 Rise Set
Actual Time
Civil Twilight
Nautical Twilight
Astronomical Twilight
Moon
Length of Visible Light
Length of Day
Tomorrow will be .
, % of the Moon is Illuminated

Today's Extremes

State Highs State Lows

Community

WunderPhotos

Upload Photos

1,962,540 photos uploaded!

WunderBlog® & News

Nearby

Air Quality

  Air Quality AQ Index Pollutant
Not available.

Snow Depth

Station Depth Elevation

Earthquake Activity

City Distance Mag. Time & Date
Minimum magnitude displayed is 2.5.

Coastal Water Temperatures

Place Temperature

Stations

Nearby Weather Stations

Station Location Temp. Windchill Dew Point Humidity Wind Precip. Elev Updated Type
                   

Watches & Warnings

There are currently no watches in effect.